createdAt,value
2022-11-15T00:00:53.115Z,9.93
2022-11-15T00:03:22.336Z,9.97
2022-11-15T00:05:49.592Z,9.94
2022-11-15T00:08:16.744Z,9.94
2022-11-15T00:10:43.643Z,9.93
2022-11-15T00:13:13.423Z,9.91
2022-11-15T00:15:41.821Z,9.97
2022-11-15T00:18:14.771Z,9.96
2022-11-15T00:20:41.390Z,10.02
2022-11-15T00:23:08.352Z,9.99
2022-11-15T00:25:35.224Z,9.97
2022-11-15T00:28:02.593Z,10.00
2022-11-15T00:30:29.762Z,10.00
2022-11-15T00:32:56.423Z,9.99
2022-11-15T00:35:23.456Z,9.98
2022-11-15T00:37:50.049Z,9.91
2022-11-15T00:40:16.762Z,9.99
2022-11-15T00:42:43.539Z,9.95
2022-11-15T00:45:11.143Z,9.98
2022-11-15T00:47:37.756Z,9.95
2022-11-15T00:50:05.143Z,10.01
2022-11-15T00:52:31.763Z,9.96
2022-11-15T00:54:58.356Z,10.01
2022-11-15T00:57:25.001Z,9.91
2022-11-15T00:59:51.604Z,9.85
2022-11-15T01:02:18.224Z,9.91
2022-11-15T01:04:44.781Z,9.91
2022-11-15T01:07:11.485Z,9.90
2022-11-15T01:09:38.139Z,9.88
2022-11-15T01:12:05.093Z,9.88
2022-11-15T01:14:31.799Z,9.83
2022-11-15T01:16:58.381Z,9.79
2022-11-15T01:19:25.023Z,9.84
2022-11-15T01:21:51.812Z,9.84
2022-11-15T01:24:18.755Z,9.80
2022-11-15T01:26:45.530Z,9.86
2022-11-15T01:29:12.177Z,9.90
2022-11-15T01:31:39.116Z,9.83
2022-11-15T01:34:05.703Z,9.83
2022-11-15T01:36:32.298Z,9.86
2022-11-15T01:38:59.754Z,9.86
2022-11-15T01:41:32.372Z,9.91
2022-11-15T01:44:37.427Z,9.98
2022-11-15T01:47:13.382Z,10.00
2022-11-15T01:49:47.321Z,9.95
2022-11-15T01:52:19.009Z,9.92
2022-11-15T01:54:46.822Z,9.96
2022-11-15T01:57:14.367Z,9.95
2022-11-15T01:59:44.270Z,9.94
2022-11-15T02:02:11.217Z,9.94
2022-11-15T02:04:47.202Z,9.94
2022-11-15T02:07:18.419Z,9.90
2022-11-15T02:09:46.814Z,10.01
2022-11-15T02:12:17.134Z,9.97
2022-11-15T02:14:47.424Z,9.99
2022-11-15T02:17:38.104Z,10.01
2022-11-15T02:20:13.690Z,9.98
2022-11-15T02:22:52.429Z,10.01
2022-11-15T02:25:39.612Z,9.95
2022-11-15T02:28:36.953Z,9.94
2022-11-15T02:31:25.535Z,9.98
2022-11-15T02:34:07.114Z,9.95
2022-11-15T02:36:44.766Z,9.97
2022-11-15T02:39:28.601Z,9.96
2022-11-15T02:42:30.414Z,10.00
2022-11-15T02:44:59.296Z,10.07
2022-11-15T02:47:28.976Z,10.00
2022-11-15T02:49:59.756Z,10.01
2022-11-15T02:52:27.198Z,9.97
2022-11-15T02:54:58.960Z,9.94
2022-11-15T02:57:43.144Z,9.99
2022-11-15T03:00:11.853Z,9.99
2022-11-15T03:03:15.537Z,9.96
2022-11-15T03:06:00.375Z,9.96
2022-11-15T03:08:36.602Z,9.96
2022-11-15T03:11:13.716Z,9.95
2022-11-15T03:14:09.326Z,9.94
2022-11-15T03:16:41.240Z,9.94
2022-11-15T03:19:50.106Z,10.01
2022-11-15T03:22:21.474Z,9.98
2022-11-15T03:24:54.253Z,10.00
2022-11-15T03:27:25.250Z,9.97
2022-11-15T03:29:58.016Z,9.95
2022-11-15T03:32:31.839Z,9.99
2022-11-15T03:35:04.200Z,9.98
2022-11-15T03:37:53.795Z,9.95
2022-11-15T03:40:27.351Z,9.92
2022-11-15T03:43:11.410Z,9.91
2022-11-15T03:45:47.500Z,9.90
2022-11-15T03:48:16.984Z,9.88
2022-11-15T03:50:45.861Z,9.88
2022-11-15T03:53:13.506Z,9.90
2022-11-15T03:55:40.169Z,9.96
2022-11-15T03:58:07.524Z,9.90
2022-11-15T04:00:34.134Z,9.94
2022-11-15T04:03:00.679Z,9.92
2022-11-15T04:05:27.233Z,9.89
2022-11-15T04:07:53.843Z,9.93
2022-11-15T04:10:20.693Z,9.92
2022-11-15T04:12:48.666Z,9.93
2022-11-15T04:15:20.694Z,9.87
2022-11-15T04:17:50.035Z,9.88
2022-11-15T04:20:41.715Z,9.81
2022-11-15T04:23:32.261Z,9.78
2022-11-15T04:26:13.821Z,9.70
2022-11-15T04:29:00.374Z,9.69
2022-11-15T04:31:27.347Z,9.63
2022-11-15T04:33:54.468Z,9.64
2022-11-15T04:36:40.340Z,9.66
2022-11-15T04:39:07.467Z,9.69
2022-11-15T04:41:34.075Z,9.59
2022-11-15T04:44:00.703Z,9.62
2022-11-15T04:46:27.647Z,9.59
2022-11-15T04:48:58.553Z,9.60
2022-11-15T04:51:25.658Z,9.58
2022-11-15T04:53:52.216Z,9.58
2022-11-15T04:56:18.840Z,9.56
2022-11-15T04:58:45.432Z,9.57
2022-11-15T05:01:17.680Z,9.52
2022-11-15T05:04:04.155Z,9.50
2022-11-15T05:06:31.447Z,9.50
2022-11-15T05:08:58.691Z,9.53
2022-11-15T05:11:25.825Z,9.51
2022-11-15T05:13:52.390Z,9.53
2022-11-15T05:16:19.013Z,9.52
2022-11-15T05:18:45.712Z,9.42
2022-11-15T05:21:15.184Z,9.55
2022-11-15T05:23:42.404Z,9.48
2022-11-15T05:26:10.338Z,9.45
2022-11-15T05:28:38.129Z,9.44
2022-11-15T05:31:09.630Z,9.42
2022-11-15T05:33:40.832Z,9.44
2022-11-15T05:36:29.084Z,9.38
2022-11-15T05:38:55.798Z,9.35
2022-11-15T05:41:31.905Z,9.39
2022-11-15T05:43:59.349Z,9.46
2022-11-15T05:46:25.985Z,9.44
2022-11-15T05:48:54.722Z,9.42
2022-11-15T05:51:23.640Z,9.45
2022-11-15T05:53:54.432Z,9.45
2022-11-15T05:56:21.022Z,9.43
2022-11-15T05:58:47.674Z,9.42
2022-11-15T06:01:14.686Z,9.42
2022-11-15T06:03:41.257Z,9.48
2022-11-15T06:06:12.238Z,9.46
2022-11-15T06:08:41.712Z,9.46
2022-11-15T06:11:08.499Z,9.46
2022-11-15T06:13:36.007Z,9.53
2022-11-15T06:16:02.724Z,9.56
2022-11-15T06:18:29.716Z,9.52
2022-11-15T06:21:00.764Z,9.53
2022-11-15T06:23:28.633Z,9.56
2022-11-15T06:25:58.858Z,9.61
2022-11-15T06:28:25.774Z,9.57
2022-11-15T06:30:53.391Z,9.62
2022-11-15T06:33:20.082Z,9.65
2022-11-15T06:35:46.713Z,9.71
2022-11-15T06:38:13.510Z,9.76
2022-11-15T06:40:40.772Z,9.75
2022-11-15T06:43:08.474Z,9.76
2022-11-15T06:45:35.062Z,9.79
2022-11-15T06:48:01.686Z,9.78
2022-11-15T06:50:28.268Z,9.83
2022-11-15T06:52:55.612Z,9.83
2022-11-15T06:55:22.340Z,9.88
2022-11-15T06:57:53.322Z,9.91
2022-11-15T07:00:21.880Z,9.91
2022-11-15T07:02:48.920Z,9.92
2022-11-15T07:05:16.514Z,9.93
2022-11-15T07:07:43.509Z,9.85
2022-11-15T07:10:10.399Z,9.92
2022-11-15T07:12:36.993Z,9.96
2022-11-15T07:15:03.937Z,9.94
2022-11-15T07:17:30.555Z,10.00
2022-11-15T07:19:57.193Z,10.01
2022-11-15T07:22:23.784Z,9.98
2022-11-15T07:24:50.379Z,9.98
2022-11-15T07:27:17.109Z,10.08
2022-11-15T07:29:43.991Z,10.08
2022-11-15T07:32:10.803Z,10.06
2022-11-15T07:34:37.424Z,10.11
2022-11-15T07:37:04.015Z,10.03
2022-11-15T07:39:30.614Z,10.14
2022-11-15T07:42:17.164Z,10.14
2022-11-15T07:44:43.762Z,10.20
2022-11-15T07:47:10.350Z,10.22
2022-11-15T07:49:37.147Z,10.32
2022-11-15T07:52:03.848Z,10.30
2022-11-15T07:54:30.617Z,10.31
2022-11-15T07:56:57.890Z,10.36
2022-11-15T07:59:26.778Z,10.30
2022-11-15T08:01:53.410Z,10.27
2022-11-15T08:04:20.119Z,10.26
2022-11-15T08:06:47.080Z,10.37
2022-11-15T08:09:13.752Z,10.42
2022-11-15T08:11:40.392Z,10.34
2022-11-15T08:14:07.022Z,10.33
2022-11-15T08:16:33.779Z,10.42
2022-11-15T08:19:01.188Z,10.39
2022-11-15T08:21:28.078Z,10.47
2022-11-15T08:23:54.650Z,10.44
2022-11-15T08:26:21.410Z,10.47
2022-11-15T08:28:48.010Z,10.39
2022-11-15T08:31:19.378Z,10.29
2022-11-15T08:33:45.989Z,10.27
2022-11-15T08:36:15.749Z,10.23
2022-11-15T08:38:42.523Z,10.35
2022-11-15T08:41:16.135Z,10.30
2022-11-15T08:43:42.708Z,10.41
2022-11-15T08:46:13.695Z,10.48
2022-11-15T08:48:40.389Z,10.55
2022-11-15T08:51:07.325Z,10.61
2022-11-15T08:53:35.076Z,10.67
2022-11-15T08:56:02.120Z,10.63
2022-11-15T08:58:28.832Z,10.68
2022-11-15T09:00:55.663Z,10.74
2022-11-15T09:03:22.302Z,10.82
2022-11-15T09:05:48.991Z,10.90
2022-11-15T09:08:40.677Z,10.92
2022-11-15T09:11:06.441Z,10.85
2022-11-15T09:13:33.695Z,10.88
2022-11-15T09:16:01.609Z,10.91
2022-11-15T09:18:28.385Z,10.93
2022-11-15T09:21:01.692Z,11.02
2022-11-15T09:23:28.280Z,11.05
2022-11-15T09:26:03.888Z,11.10
2022-11-15T09:28:31.957Z,11.07
2022-11-15T09:31:03.566Z,11.08
2022-11-15T09:33:31.013Z,10.94
2022-11-15T09:36:06.543Z,10.87
2022-11-15T09:38:34.647Z,10.91
2022-11-15T09:41:13.667Z,10.90
2022-11-15T09:44:02.106Z,10.89
2022-11-15T09:47:02.059Z,10.90
2022-11-15T09:49:30.979Z,10.90
2022-11-15T09:51:58.342Z,10.79
2022-11-15T09:54:52.302Z,10.86
2022-11-15T09:57:21.442Z,10.93
2022-11-15T10:00:12.253Z,10.96
2022-11-15T10:03:24.597Z,11.05
2022-11-15T10:05:55.227Z,11.07
2022-11-15T10:08:26.483Z,11.02
2022-11-15T10:11:36.147Z,11.02
2022-11-15T10:13:52.909Z,11.00
2022-11-15T10:16:50.758Z,10.98
2022-11-15T10:19:35.294Z,10.96
2022-11-15T10:22:17.642Z,10.86
2022-11-15T10:24:46.453Z,10.83
2022-11-15T10:27:15.946Z,10.92
2022-11-15T10:29:50.577Z,10.89
2022-11-15T10:32:20.232Z,11.00
2022-11-15T10:34:48.593Z,10.95
2022-11-15T10:37:15.732Z,10.98
2022-11-15T10:42:30.211Z,10.86
2022-11-15T10:44:56.936Z,10.96
2022-11-15T10:47:38.967Z,10.86
2022-11-15T10:50:29.631Z,10.90
2022-11-15T10:52:56.632Z,10.93
2022-11-15T10:55:27.678Z,10.95
2022-11-15T10:57:59.236Z,10.94
2022-11-15T11:00:33.383Z,10.86
2022-11-15T11:03:01.800Z,10.86
2022-11-15T11:05:42.724Z,10.91
2022-11-15T11:08:12.379Z,10.96
2022-11-15T11:10:51.502Z,10.94
2022-11-15T11:13:31.944Z,10.92
2022-11-15T11:16:10.647Z,10.91
2022-11-15T11:18:53.082Z,10.87
2022-11-15T11:21:42.284Z,10.88
2022-11-15T11:24:35.473Z,10.88
2022-11-15T11:27:10.848Z,11.00
2022-11-15T11:29:55.869Z,11.07
2022-11-15T11:32:40.544Z,11.12
2022-11-15T11:35:15.344Z,11.14
2022-11-15T11:37:56.114Z,11.08
2022-11-15T11:40:54.697Z,11.09
2022-11-15T11:43:35.978Z,11.13
2022-11-15T11:46:31.719Z,11.17
2022-11-15T11:49:21.472Z,11.23
2022-11-15T11:52:05.873Z,11.19
2022-11-15T11:54:36.982Z,11.20
2022-11-15T11:57:10.919Z,11.30
2022-11-15T11:59:54.619Z,11.26
2022-11-15T12:02:42.370Z,11.28
2022-11-15T12:05:17.367Z,11.38
2022-11-15T12:07:47.509Z,11.33
2022-11-15T12:10:23.643Z,11.30
2022-11-15T12:13:12.667Z,11.16
2022-11-15T12:16:02.126Z,11.16
2022-11-15T12:18:31.942Z,11.16
2022-11-15T12:21:08.874Z,11.17
2022-11-15T12:23:47.438Z,11.24
2022-11-15T12:26:25.308Z,11.19
2022-11-15T12:29:07.376Z,11.25
2022-11-15T12:31:35.201Z,11.35
2022-11-15T12:34:27.937Z,11.24
2022-11-15T12:36:54.652Z,11.29
2022-11-15T12:39:21.925Z,11.31
2022-11-15T12:41:57.445Z,11.15
2022-11-15T12:44:32.855Z,11.20
2022-11-15T12:46:59.423Z,11.27
2022-11-15T12:49:29.003Z,11.31
2022-11-15T12:51:58.351Z,11.30
2022-11-15T12:54:24.908Z,11.23
2022-11-15T12:57:09.426Z,11.31
2022-11-15T12:59:48.238Z,11.31
2022-11-15T13:02:26.986Z,11.26
2022-11-15T13:04:56.301Z,11.26
2022-11-15T13:07:48.928Z,11.24
2022-11-15T13:10:28.311Z,11.28
2022-11-15T13:13:01.144Z,11.27
2022-11-15T13:15:54.858Z,11.19
2022-11-15T13:18:31.384Z,11.18
2022-11-15T13:21:02.412Z,11.26
2022-11-15T13:23:29.867Z,11.35
2022-11-15T13:26:17.590Z,11.35
2022-11-15T13:28:50.582Z,11.27
2022-11-15T13:31:25.764Z,11.33
2022-11-15T13:33:54.242Z,11.32
2022-11-15T13:36:30.956Z,11.37
2022-11-15T13:39:00.859Z,11.41
2022-11-15T13:41:35.779Z,11.44
2022-11-15T13:44:04.341Z,11.43
2022-11-15T13:46:34.978Z,11.46
2022-11-15T13:49:06.860Z,11.44
2022-11-15T13:51:39.697Z,11.42
2022-11-15T13:54:22.061Z,11.42
2022-11-15T13:57:10.799Z,11.42
2022-11-15T13:59:47.804Z,11.42
2022-11-15T14:02:20.364Z,11.37
2022-11-15T14:04:57.907Z,11.39
2022-11-15T14:07:26.956Z,11.35
2022-11-15T14:09:53.805Z,11.32
2022-11-15T14:12:47.555Z,11.33
2022-11-15T14:15:36.829Z,11.37
2022-11-15T14:18:05.115Z,11.28
2022-11-15T14:20:38.018Z,11.26
2022-11-15T14:23:19.712Z,11.30
2022-11-15T14:25:59.314Z,11.27
2022-11-15T14:28:25.859Z,11.33
2022-11-15T14:30:54.475Z,11.29
2022-11-15T14:33:25.198Z,11.23
2022-11-15T14:35:53.206Z,11.23
2022-11-15T14:38:19.872Z,11.26
2022-11-15T14:40:46.604Z,11.18
2022-11-15T14:43:13.945Z,11.15
2022-11-15T14:45:41.042Z,11.16
2022-11-15T14:48:08.181Z,10.98
2022-11-15T14:50:36.008Z,11.06
2022-11-15T14:53:03.055Z,11.07
2022-11-15T14:55:33.010Z,11.07
2022-11-15T14:58:00.153Z,10.97
2022-11-15T15:00:30.932Z,10.96
2022-11-15T15:03:00.951Z,10.96
2022-11-15T15:05:35.665Z,11.02
2022-11-15T15:08:03.148Z,10.92
2022-11-15T15:10:42.302Z,10.84
2022-11-15T15:13:20.656Z,10.94
2022-11-15T15:15:48.071Z,10.87
2022-11-15T15:18:14.823Z,10.94
2022-11-15T15:20:42.948Z,10.94
2022-11-15T15:23:20.782Z,10.89
2022-11-15T15:25:49.909Z,10.88
2022-11-15T15:28:16.700Z,10.95
2022-11-15T15:30:43.464Z,10.97
2022-11-15T15:33:10.103Z,10.94
2022-11-15T15:35:36.807Z,10.92
2022-11-15T15:38:04.441Z,10.97
2022-11-15T15:40:34.209Z,10.91
2022-11-15T15:43:01.237Z,10.85
2022-11-15T15:45:29.168Z,10.83
2022-11-15T15:47:56.328Z,10.78
2022-11-15T15:50:36.019Z,10.76
2022-11-15T15:53:04.562Z,10.73
2022-11-15T15:55:31.613Z,10.76
2022-11-15T15:57:58.277Z,10.77
2022-11-15T16:00:26.400Z,10.73
2022-11-15T16:02:53.952Z,10.71
2022-11-15T16:05:22.039Z,10.65
2022-11-15T16:07:49.308Z,10.80
2022-11-15T16:10:15.777Z,10.82
2022-11-15T16:12:42.403Z,10.79
2022-11-15T16:15:09.333Z,10.73
2022-11-15T16:17:39.515Z,10.69
2022-11-15T16:20:07.327Z,10.68
2022-11-15T16:22:33.885Z,10.75
2022-11-15T16:25:00.423Z,10.77
2022-11-15T16:27:27.066Z,10.71
2022-11-15T16:29:53.611Z,10.75
2022-11-15T16:32:20.276Z,10.83
2022-11-15T16:34:49.161Z,10.80
2022-11-15T16:37:25.405Z,10.70
2022-11-15T16:39:53.972Z,10.63
2022-11-15T16:42:23.920Z,10.62
2022-11-15T16:44:51.689Z,10.62
2022-11-15T16:47:22.878Z,10.66
2022-11-15T16:49:49.461Z,10.65
2022-11-15T16:52:20.261Z,10.68
2022-11-15T16:54:48.073Z,10.70
2022-11-15T16:57:14.774Z,10.82
2022-11-15T16:59:41.388Z,10.78
2022-11-15T17:02:14.163Z,10.76
2022-11-15T17:04:40.911Z,10.81
2022-11-15T17:07:08.758Z,10.78
2022-11-15T17:09:35.535Z,10.78
2022-11-15T17:12:02.136Z,10.79
2022-11-15T17:14:29.052Z,10.75
2022-11-15T17:16:55.678Z,10.78
2022-11-15T17:19:22.273Z,10.77
2022-11-15T17:21:52.222Z,10.78
2022-11-15T17:24:20.962Z,10.76
2022-11-15T17:26:47.800Z,10.71
2022-11-15T17:29:14.384Z,10.69
2022-11-15T17:31:40.975Z,10.68
2022-11-15T17:34:07.781Z,10.73
2022-11-15T17:36:35.110Z,10.73
2022-11-15T17:39:02.211Z,10.72
2022-11-15T17:41:29.416Z,10.66
2022-11-15T17:43:58.551Z,10.70
2022-11-15T17:46:26.173Z,10.73
2022-11-15T17:48:52.734Z,10.73
2022-11-15T17:51:19.432Z,10.75
2022-11-15T17:53:47.283Z,10.72
2022-11-15T17:56:16.118Z,10.77
2022-11-15T17:58:47.177Z,10.69
2022-11-15T18:01:30.047Z,10.73
2022-11-15T18:04:00.237Z,10.69
2022-11-15T18:06:30.509Z,10.63
2022-11-15T18:08:57.736Z,10.59
2022-11-15T18:11:28.586Z,10.63
2022-11-15T18:14:04.019Z,10.58
2022-11-15T18:16:33.806Z,10.60
2022-11-15T18:19:00.771Z,10.59
2022-11-15T18:21:29.739Z,10.61
2022-11-15T18:23:58.822Z,10.62
2022-11-15T18:26:29.617Z,10.56
2022-11-15T18:29:02.045Z,10.57
2022-11-15T18:31:30.603Z,10.56
2022-11-15T18:33:59.978Z,10.49
2022-11-15T18:36:29.482Z,10.56
2022-11-15T18:39:04.626Z,10.49
2022-11-15T18:41:32.858Z,10.48
2022-11-15T18:44:01.444Z,10.48
2022-11-15T18:46:30.936Z,10.44
2022-11-15T18:48:59.767Z,10.47
2022-11-15T18:51:29.973Z,10.48
2022-11-15T18:53:59.586Z,10.45
2022-11-15T18:56:27.685Z,10.49
2022-11-15T18:58:56.744Z,10.46
2022-11-15T19:01:37.593Z,10.43
2022-11-15T19:04:07.987Z,10.48
2022-11-15T19:06:38.545Z,10.43
2022-11-15T19:09:05.886Z,10.41
2022-11-15T19:11:35.897Z,10.44
2022-11-15T19:14:11.359Z,10.42
2022-11-15T19:16:40.715Z,10.42
2022-11-15T19:19:14.125Z,10.46
2022-11-15T19:21:40.856Z,10.49
2022-11-15T19:24:07.620Z,10.49
2022-11-15T19:26:36.903Z,10.48
2022-11-15T19:29:05.312Z,10.45
2022-11-15T19:31:33.156Z,10.38
2022-11-15T19:34:03.120Z,10.38
2022-11-15T19:36:34.813Z,10.36
2022-11-15T19:39:08.476Z,10.46
2022-11-15T19:41:37.865Z,10.38
2022-11-15T19:44:06.197Z,10.42
2022-11-15T19:46:33.483Z,10.38
2022-11-15T19:49:00.259Z,10.33
2022-11-15T19:51:30.362Z,10.36
2022-11-15T19:53:59.237Z,10.30
2022-11-15T19:56:25.991Z,10.25
2022-11-15T19:58:54.532Z,10.28
2022-11-15T20:01:22.761Z,10.30
2022-11-15T20:03:50.898Z,10.30
2022-11-15T20:06:19.443Z,10.29
2022-11-15T20:08:47.821Z,10.30
2022-11-15T20:11:15.247Z,10.29
2022-11-15T20:13:42.501Z,10.26
2022-11-15T20:16:14.807Z,10.22
2022-11-15T20:18:41.450Z,10.25
2022-11-15T20:21:09.059Z,10.23
2022-11-15T20:23:35.774Z,10.18
2022-11-15T20:26:02.332Z,10.21
2022-11-15T20:28:29.353Z,10.20
2022-11-15T20:30:58.831Z,10.21
2022-11-15T20:33:26.096Z,10.18
2022-11-15T20:35:53.104Z,10.14
2022-11-15T20:38:21.244Z,10.17
2022-11-15T20:40:56.063Z,10.12
2022-11-15T20:43:25.761Z,10.04
2022-11-15T20:45:52.369Z,9.96
2022-11-15T20:48:19.036Z,10.01
2022-11-15T20:50:47.050Z,10.04
2022-11-15T20:53:17.378Z,10.05
2022-11-15T20:55:49.224Z,9.99
2022-11-15T20:58:17.496Z,9.95
2022-11-15T21:00:45.491Z,9.92
2022-11-15T21:03:14.156Z,9.92
2022-11-15T21:05:43.330Z,9.91
2022-11-15T21:08:12.139Z,9.92
2022-11-15T21:10:58.976Z,9.98
2022-11-15T21:13:25.579Z,9.96
2022-11-15T21:15:57.036Z,9.92
2022-11-15T21:18:24.034Z,9.96
2022-11-15T21:20:50.770Z,10.06
2022-11-15T21:23:17.379Z,10.03
2022-11-15T21:25:50.651Z,10.00
2022-11-15T21:28:18.231Z,9.96
2022-11-15T21:30:59.424Z,9.92
2022-11-15T21:33:30.114Z,9.91
2022-11-15T21:35:57.834Z,9.86
2022-11-15T21:38:24.837Z,9.86
2022-11-15T21:40:52.899Z,9.94
2022-11-15T21:43:20.728Z,9.98
2022-11-15T21:46:01.086Z,10.02
2022-11-15T21:48:29.462Z,9.97
2022-11-15T21:51:04.437Z,9.97
2022-11-15T21:53:31.768Z,9.95
2022-11-15T21:56:01.206Z,10.04
2022-11-15T21:58:28.235Z,10.04
2022-11-15T22:01:14.567Z,9.99
2022-11-15T22:03:42.697Z,10.03
2022-11-15T22:06:16.094Z,10.01
2022-11-15T22:08:45.436Z,10.03
2022-11-15T22:11:12.113Z,10.01
2022-11-15T22:13:38.860Z,9.76
2022-11-15T22:16:05.787Z,9.75
2022-11-15T22:18:32.889Z,9.81
2022-11-15T22:21:09.143Z,9.83
2022-11-15T22:23:36.280Z,9.79
2022-11-15T22:26:03.047Z,9.81
2022-11-15T22:28:30.485Z,9.80
2022-11-15T22:30:57.977Z,9.78
2022-11-15T22:33:27.592Z,9.83
2022-11-15T22:35:54.548Z,9.88
2022-11-15T22:38:21.620Z,9.84
2022-11-15T22:40:48.302Z,9.80
2022-11-15T22:43:17.116Z,9.76
2022-11-15T22:45:48.536Z,9.74
2022-11-15T22:48:15.516Z,9.79
2022-11-15T22:50:43.569Z,9.73
2022-11-15T22:53:10.153Z,9.70
2022-11-15T22:55:41.071Z,9.58
2022-11-15T22:58:08.815Z,9.65
2022-11-15T23:00:35.548Z,9.68
2022-11-15T23:03:02.883Z,9.66
2022-11-15T23:05:29.659Z,9.71
2022-11-15T23:07:56.285Z,9.75
2022-11-15T23:10:41.592Z,9.71
2022-11-15T23:13:16.882Z,9.64
2022-11-15T23:16:04.430Z,9.65
2022-11-15T23:18:38.888Z,9.58
2022-11-15T23:21:37.139Z,9.58
2022-11-15T23:24:05.375Z,9.59
2022-11-15T23:26:32.766Z,9.55
2022-11-15T23:28:59.397Z,9.51
2022-11-15T23:31:44.769Z,9.54
2022-11-15T23:34:12.234Z,9.43
2022-11-15T23:36:38.880Z,9.31
2022-11-15T23:39:05.465Z,9.29
2022-11-15T23:41:32.026Z,9.24
2022-11-15T23:43:58.600Z,9.18
2022-11-15T23:46:25.521Z,9.09
2022-11-15T23:48:52.137Z,9.04
2022-11-15T23:51:18.926Z,8.93
2022-11-15T23:53:45.505Z,8.95
2022-11-15T23:56:14.435Z,8.95
2022-11-15T23:58:42.186Z,8.86
